createdAt,value
2023-01-28T00:03:53.602Z,103178.50
2023-01-28T00:14:15.103Z,103180.81
2023-01-28T00:24:36.440Z,103171.28
2023-01-28T00:34:57.796Z,103155.66
2023-01-28T00:45:19.179Z,103164.94
2023-01-28T00:55:40.659Z,103179.50
2023-01-28T01:06:02.029Z,103166.47
2023-01-28T01:16:24.619Z,103163.91
2023-01-28T01:26:46.039Z,103181.56
2023-01-28T01:37:08.502Z,103159.28
2023-01-28T01:47:40.244Z,103170.19
2023-01-28T01:58:04.639Z,103180.34
2023-01-28T02:08:26.013Z,103189.59
2023-01-28T02:18:47.393Z,103177.34
2023-01-28T02:29:27.560Z,103187.22
2023-01-28T02:39:51.772Z,103190.41
2023-01-28T02:50:16.116Z,103177.50
2023-01-28T03:00:43.690Z,103166.03
2023-01-28T03:11:23.746Z,103176.66
2023-01-28T03:22:04.300Z,103189.16
2023-01-28T03:32:44.530Z,103182.78
2023-01-28T03:43:05.884Z,103186.84
2023-01-28T03:53:28.172Z,103187.63
2023-01-28T04:03:49.567Z,103176.19
2023-01-28T04:14:10.932Z,103177.22
2023-01-28T04:24:32.285Z,103190.41
2023-01-28T04:34:53.661Z,103184.69
2023-01-28T04:45:15.455Z,103184.34
2023-01-28T04:55:37.052Z,103175.47
2023-01-28T05:05:58.475Z,103160.72
2023-01-28T05:16:19.856Z,103156.94
2023-01-28T05:26:41.395Z,103150.50
2023-01-28T05:37:02.852Z,103146.06
2023-01-28T05:47:24.206Z,103147.53
2023-01-28T05:57:45.555Z,103136.34
2023-01-28T06:08:07.254Z,103142.03
2023-01-28T06:18:28.613Z,103129.00
2023-01-28T06:28:50.072Z,103134.78
2023-01-28T06:39:11.497Z,103127.81
2023-01-28T06:49:32.829Z,103153.75
2023-01-28T06:59:54.176Z,103153.00
2023-01-28T07:10:16.092Z,103172.38
2023-01-28T07:20:37.751Z,103191.91
2023-01-28T07:30:59.335Z,103199.53
2023-01-28T07:41:20.788Z,103202.09
2023-01-28T07:51:42.129Z,103221.47
2023-01-28T08:02:03.618Z,103203.63
2023-01-28T08:12:24.983Z,103210.63
2023-01-28T08:22:46.344Z,103213.97
2023-01-28T08:33:09.001Z,103219.88
2023-01-28T08:43:30.367Z,103214.25
2023-01-28T08:53:51.719Z,103246.38
2023-01-28T09:04:13.076Z,103271.13
2023-01-28T09:14:34.459Z,103278.44
2023-01-28T09:24:55.803Z,103282.78
2023-01-28T09:35:18.033Z,103294.63
2023-01-28T09:45:39.375Z,103271.66
2023-01-28T09:56:05.729Z,103279.72
2023-01-28T10:06:42.542Z,103271.50
2023-01-28T10:17:24.164Z,103265.94
2023-01-28T10:27:46.928Z,103240.88
2023-01-28T10:38:10.478Z,103220.91
2023-01-28T10:48:38.488Z,103208.03
2023-01-28T10:59:00.577Z,103199.56
2023-01-28T11:09:22.771Z,103168.22
2023-01-28T11:19:44.609Z,103111.47
2023-01-28T11:30:07.863Z,103137.16
2023-01-28T11:40:29.450Z,103150.47
2023-01-28T11:50:54.341Z,103164.09
2023-01-28T12:01:31.123Z,103133.75
2023-01-28T12:12:14.134Z,103123.22
2023-01-28T12:22:44.649Z,103126.47
2023-01-28T12:33:12.141Z,103086.56
2023-01-28T12:43:33.466Z,103068.63
2023-01-28T12:53:54.835Z,103073.09
2023-01-28T13:04:25.258Z,103054.56
2023-01-28T13:14:47.549Z,103056.94
2023-01-28T13:25:18.468Z,103077.06
2023-01-28T13:35:40.606Z,103064.94
2023-01-28T13:46:03.828Z,103067.75
2023-01-28T13:56:26.590Z,103062.22
2023-01-28T14:06:59.176Z,103058.22
2023-01-28T14:17:26.715Z,103069.41
2023-01-28T14:27:52.544Z,103073.88
2023-01-28T14:38:16.228Z,103053.34
2023-01-28T14:48:45.664Z,103105.63
2023-01-28T14:59:25.116Z,103093.69
2023-01-28T15:09:46.795Z,103109.84
2023-01-28T15:20:08.814Z,103087.63
2023-01-28T15:30:31.948Z,103092.84
2023-01-28T15:40:56.411Z,103074.06
2023-01-28T15:51:20.104Z,103047.31
2023-01-28T16:01:41.883Z,103040.81
2023-01-28T16:12:12.327Z,103050.13
2023-01-28T16:22:42.175Z,103066.56
2023-01-28T16:33:03.575Z,103063.97
2023-01-28T16:43:24.961Z,103077.50
2023-01-28T16:53:47.658Z,103081.81
2023-01-28T17:04:11.988Z,103074.22
2023-01-28T17:14:34.104Z,103075.00
2023-01-28T17:24:55.477Z,103110.00
2023-01-28T17:35:17.200Z,103101.44
2023-01-28T17:45:38.833Z,103118.44
2023-01-28T17:56:00.276Z,103119.31
2023-01-28T18:06:22.111Z,103125.34
2023-01-28T18:16:43.886Z,103120.94
2023-01-28T18:27:05.254Z,103115.69
2023-01-28T18:37:26.822Z,103117.31
2023-01-28T18:47:48.200Z,103132.41
2023-01-28T18:58:09.756Z,103111.06
2023-01-28T19:08:32.395Z,103105.84
2023-01-28T19:18:55.203Z,103092.22
2023-01-28T19:29:16.598Z,103067.19
2023-01-28T19:39:37.996Z,103083.97
2023-01-28T19:49:59.877Z,103083.00
2023-01-28T20:00:21.264Z,103094.38
2023-01-28T20:10:42.619Z,103090.25
2023-01-28T20:21:06.910Z,103065.50
2023-01-28T20:31:28.483Z,103078.38
2023-01-28T20:41:50.061Z,103068.19
2023-01-28T20:52:11.594Z,103060.41
2023-01-28T21:02:35.488Z,103051.91
2023-01-28T21:12:56.892Z,103074.16
2023-01-28T21:23:18.323Z,103051.09
2023-01-28T21:33:39.712Z,103060.50
2023-01-28T21:44:01.187Z,103046.66
2023-01-28T21:54:22.523Z,103041.47
2023-01-28T22:04:46.281Z,103046.31
2023-01-28T22:15:07.923Z,103048.81
2023-01-28T22:25:29.351Z,103045.41
2023-01-28T22:35:50.834Z,103023.31
2023-01-28T22:46:12.483Z,103006.97
2023-01-28T22:56:33.904Z,102983.66
2023-01-28T23:06:55.291Z,102985.13
2023-01-28T23:17:35.320Z,102966.94
2023-01-28T23:27:56.770Z,102974.25
2023-01-28T23:38:18.277Z,103000.59
2023-01-28T23:48:39.780Z,102999.56
2023-01-28T23:59:02.481Z,103008.97
